AFR23 SAEZ-TNCM
Flight info
| Callsign | AFR23 |
|---|---|
| Flight time | N/A |
| Altitude | 39000 |
| Route | LANDA2A LANDA DCT GUA UL793 DALAB UZ103 REPAM UP526 VAS UM402 SIDAK/N0486F400 UM402 UBKAB/N0485F410 UM402 MNS/N0486F400 UM402 LOLER/N0485F410 UM402 POS DCT ANU UB520 ELOPO DCT ULUBA ULUBA1 |
| Aircraft | B789/H-SDE1E2E3FGHIJ2J3J4J5M1RWXY/LB1D1 |
Departure
| Time | N/A |
|---|---|
| Airport | Ezeiza International Airport - Ministro Pistarini (SAEZ) |
Arrival
| Time | 2026-04-30 22:24 |
|---|---|
| Airport | Princess Juliana International Airport (TNCM) |
| Time | Latitude | Longitude | Altitude | Speed | Heading |
|---|---|---|---|---|---|
| 2026-04-30 21:26 | 11.83768 | -61.47450 | 40854 ft | 525 kts | 355° |
| 2026-04-30 21:27 | 11.90803 | -61.47874 | 40842 ft | 525 kts | 355° |
| 2026-04-30 21:27 | 11.98074 | -61.48312 | 40838 ft | 525 kts | 355° |
| 2026-04-30 21:28 | 12.09042 | -61.48973 | 40853 ft | 525 kts | 355° |
| 2026-04-30 21:29 | 12.19996 | -61.49634 | 40841 ft | 525 kts | 355° |
| 2026-04-30 21:30 | 12.38186 | -61.50733 | 40845 ft | 525 kts | 355° |
| 2026-04-30 21:31 | 12.56433 | -61.51837 | 40881 ft | 525 kts | 355° |
| 2026-04-30 21:32 | 12.67379 | -61.52500 | 40873 ft | 525 kts | 355° |
| 2026-04-30 21:32 | 12.74675 | -61.52942 | 40883 ft | 525 kts | 355° |
| 2026-04-30 21:33 | 12.85617 | -61.53606 | 40870 ft | 525 kts | 355° |
| 2026-04-30 21:34 | 12.92868 | -61.54046 | 40882 ft | 525 kts | 355° |
| 2026-04-30 21:34 | 13.03804 | -61.54710 | 40870 ft | 525 kts | 355° |
| 2026-04-30 21:35 | 13.11106 | -61.55154 | 40880 ft | 525 kts | 355° |
| 2026-04-30 21:35 | 13.18404 | -61.55598 | 40879 ft | 525 kts | 355° |
| 2026-04-30 21:36 | 13.25696 | -61.56042 | 40870 ft | 525 kts | 355° |
| 2026-04-30 21:37 | 13.39048 | -61.56855 | 40878 ft | 525 kts | 355° |
| 2026-04-30 21:37 | 13.47529 | -61.57372 | 40871 ft | 525 kts | 355° |
| 2026-04-30 21:38 | 13.53589 | -61.57742 | 40882 ft | 525 kts | 355° |
| 2026-04-30 21:38 | 13.60892 | -61.58188 | 40875 ft | 525 kts | 355° |
| 2026-04-30 21:39 | 13.68238 | -61.58636 | 40872 ft | 525 kts | 355° |
| 2026-04-30 21:39 | 13.75473 | -61.59077 | 40899 ft | 516 kts | 354° |
| 2026-04-30 21:40 | 13.82601 | -61.59516 | 40912 ft | 516 kts | 354° |
| 2026-04-30 21:40 | 13.89776 | -61.59957 | 40903 ft | 516 kts | 354° |
| 2026-04-30 21:41 | 13.96952 | -61.60397 | 40903 ft | 516 kts | 354° |
| 2026-04-30 21:41 | 14.04122 | -61.60836 | 40912 ft | 516 kts | 354° |
| 2026-04-30 21:42 | 14.11295 | -61.61276 | 40900 ft | 516 kts | 354° |
| 2026-04-30 21:42 | 14.18434 | -61.61714 | 40908 ft | 516 kts | 354° |
| 2026-04-30 21:43 | 14.25610 | -61.62154 | 40908 ft | 516 kts | 354° |
| 2026-04-30 21:43 | 14.32780 | -61.62594 | 40900 ft | 516 kts | 354° |
| 2026-04-30 21:44 | 14.39953 | -61.63035 | 40913 ft | 516 kts | 354° |
| 2026-04-30 21:44 | 14.47114 | -61.63471 | 40902 ft | 515 kts | 354° |
| 2026-04-30 21:45 | 14.54230 | -61.63906 | 40905 ft | 515 kts | 354° |
| 2026-04-30 21:45 | 14.61385 | -61.64349 | 40912 ft | 514 kts | 354° |
| 2026-04-30 21:46 | 14.68538 | -61.64793 | 40899 ft | 514 kts | 354° |
| 2026-04-30 21:46 | 14.75695 | -61.65235 | 40910 ft | 514 kts | 354° |
| 2026-04-30 21:47 | 14.82848 | -61.65676 | 40906 ft | 514 kts | 354° |
| 2026-04-30 21:47 | 14.89953 | -61.66115 | 40901 ft | 514 kts | 354° |
| 2026-04-30 21:48 | 14.97100 | -61.66557 | 40912 ft | 514 kts | 354° |
| 2026-04-30 21:48 | 15.04243 | -61.66998 | 40908 ft | 516 kts | 355° |
| 2026-04-30 21:49 | 15.11445 | -61.67443 | 40941 ft | 519 kts | 355° |
| 2026-04-30 21:49 | 15.18644 | -61.67888 | 40962 ft | 518 kts | 355° |
| 2026-04-30 21:50 | 15.25852 | -61.68333 | 40971 ft | 518 kts | 355° |
| 2026-04-30 21:50 | 15.33013 | -61.68777 | 40959 ft | 518 kts | 355° |
| 2026-04-30 21:51 | 15.40206 | -61.69223 | 40967 ft | 518 kts | 355° |
| 2026-04-30 21:51 | 15.47403 | -61.69670 | 40967 ft | 518 kts | 355° |
| 2026-04-30 21:52 | 15.54620 | -61.70119 | 40959 ft | 518 kts | 355° |
| 2026-04-30 21:52 | 15.61815 | -61.70566 | 40971 ft | 518 kts | 355° |
| 2026-04-30 21:53 | 15.68999 | -61.71013 | 40962 ft | 518 kts | 355° |
| 2026-04-30 21:53 | 15.76184 | -61.71461 | 40956 ft | 519 kts | 355° |
| 2026-04-30 21:54 | 15.83387 | -61.71913 | 40967 ft | 519 kts | 355° |
| 2026-04-30 21:54 | 15.90606 | -61.72363 | 40951 ft | 519 kts | 355° |
| 2026-04-30 21:55 | 15.97818 | -61.72811 | 40944 ft | 519 kts | 355° |
| 2026-04-30 21:55 | 16.05036 | -61.73262 | 40952 ft | 521 kts | 355° |
| 2026-04-30 21:56 | 16.12267 | -61.73713 | 40938 ft | 519 kts | 354° |
| 2026-04-30 21:56 | 16.19431 | -61.74162 | 40941 ft | 521 kts | 355° |
| 2026-04-30 21:57 | 16.26712 | -61.74618 | 40936 ft | 523 kts | 355° |
| 2026-04-30 21:57 | 16.33952 | -61.75069 | 40934 ft | 520 kts | 354° |
| 2026-04-30 21:58 | 16.41124 | -61.75518 | 40943 ft | 510 kts | 355° |
| 2026-04-30 21:58 | 16.48119 | -61.75954 | 40901 ft | 496 kts | 354° |
| 2026-04-30 21:59 | 16.55000 | -61.76388 | 40522 ft | 499 kts | 355° |
| 2026-04-30 21:59 | 16.58485 | -61.76607 | 39930 ft | 502 kts | 354° |
| 2026-04-30 22:00 | 16.65452 | -61.77040 | 38693 ft | 502 kts | 354° |
| 2026-04-30 22:00 | 16.72429 | -61.77476 | 37470 ft | 500 kts | 353° |
| 2026-04-30 22:00 | 16.75841 | -61.77689 | 36875 ft | 498 kts | 352° |
| 2026-04-30 22:01 | 16.79350 | -61.77911 | 36264 ft | 496 kts | 352° |
| 2026-04-30 22:01 | 16.82745 | -61.78127 | 35674 ft | 495 kts | 351° |
| 2026-04-30 22:01 | 16.86178 | -61.78344 | 35079 ft | 493 kts | 351° |
| 2026-04-30 22:01 | 16.89578 | -61.78559 | 34490 ft | 491 kts | 350° |
| 2026-04-30 22:02 | 16.92996 | -61.78775 | 33898 ft | 490 kts | 350° |
| 2026-04-30 22:02 | 16.96384 | -61.78989 | 33310 ft | 488 kts | 349° |
| 2026-04-30 22:02 | 16.99784 | -61.79204 | 32720 ft | 487 kts | 349° |
| 2026-04-30 22:02 | 17.03177 | -61.79420 | 32133 ft | 489 kts | 348° |
| 2026-04-30 22:03 | 17.06523 | -61.79878 | 31400 ft | 484 kts | 340° |
| 2026-04-30 22:03 | 17.09690 | -61.80989 | 30643 ft | 474 kts | 329° |
| 2026-04-30 22:03 | 17.12492 | -61.82699 | 29970 ft | 461 kts | 318° |
| 2026-04-30 22:03 | 17.14819 | -61.84908 | 29716 ft | 441 kts | 308° |
| 2026-04-30 22:04 | 17.16822 | -61.87243 | 29668 ft | 426 kts | 306° |
| 2026-04-30 22:04 | 17.18709 | -61.89615 | 29585 ft | 433 kts | 304° |
| 2026-04-30 22:04 | 17.22466 | -61.94697 | 29447 ft | 439 kts | 302° |
| 2026-04-30 22:05 | 17.24272 | -61.97226 | 29369 ft | 438 kts | 302° |
| 2026-04-30 22:05 | 17.27886 | -62.02347 | 29213 ft | 437 kts | 302° |
| 2026-04-30 22:06 | 17.31509 | -62.07502 | 29060 ft | 438 kts | 302° |
| 2026-04-30 22:06 | 17.35095 | -62.12599 | 28911 ft | 437 kts | 302° |
| 2026-04-30 22:06 | 17.36895 | -62.15161 | 28834 ft | 435 kts | 302° |
| 2026-04-30 22:07 | 17.40503 | -62.20308 | 28682 ft | 435 kts | 302° |
| 2026-04-30 22:07 | 17.44046 | -62.25376 | 28532 ft | 433 kts | 302° |
| 2026-04-30 22:08 | 17.47629 | -62.30507 | 28381 ft | 433 kts | 302° |
| 2026-04-30 22:08 | 17.51157 | -62.35559 | 28232 ft | 433 kts | 302° |
| 2026-04-30 22:09 | 17.54699 | -62.40637 | 28081 ft | 431 kts | 302° |
| 2026-04-30 22:09 | 17.58228 | -62.45700 | 27931 ft | 429 kts | 302° |
| 2026-04-30 22:10 | 17.59971 | -62.48193 | 27852 ft | 417 kts | 302° |
| 2026-04-30 22:10 | 17.61660 | -62.50607 | 27764 ft | 403 kts | 302° |
| 2026-04-30 22:10 | 17.63225 | -62.52981 | 27508 ft | 390 kts | 297° |
| 2026-04-30 22:10 | 17.64484 | -62.55492 | 26821 ft | 390 kts | 292° |
| 2026-04-30 22:11 | 17.66735 | -62.60663 | 25273 ft | 389 kts | 290° |
| 2026-04-30 22:11 | 17.67781 | -62.63280 | 24519 ft | 388 kts | 290° |
| 2026-04-30 22:11 | 17.68793 | -62.65900 | 23771 ft | 387 kts | 289° |
| 2026-04-30 22:12 | 17.69785 | -62.68528 | 23021 ft | 387 kts | 288° |
| 2026-04-30 22:12 | 17.70765 | -62.71158 | 22270 ft | 386 kts | 288° |
| 2026-04-30 22:12 | 17.71727 | -62.73757 | 21508 ft | 386 kts | 287° |
| 2026-04-30 22:12 | 17.72688 | -62.76359 | 20770 ft | 383 kts | 287° |
| 2026-04-30 22:13 | 17.73650 | -62.78975 | 20016 ft | 382 kts | 287° |
| 2026-04-30 22:13 | 17.74602 | -62.81571 | 19266 ft | 380 kts | 287° |
| 2026-04-30 22:13 | 17.75546 | -62.84154 | 18518 ft | 378 kts | 287° |
| 2026-04-30 22:13 | 17.76487 | -62.86735 | 17766 ft | 376 kts | 287° |
| 2026-04-30 22:14 | 17.77417 | -62.89287 | 17016 ft | 374 kts | 287° |
| 2026-04-30 22:14 | 17.78341 | -62.91820 | 16266 ft | 371 kts | 288° |
| 2026-04-30 22:14 | 17.79251 | -62.94311 | 15494 ft | 368 kts | 288° |
| 2026-04-30 22:14 | 17.80160 | -62.96798 | 14737 ft | 361 kts | 288° |
| 2026-04-30 22:15 | 17.81047 | -62.99227 | 13992 ft | 355 kts | 288° |
| 2026-04-30 22:15 | 17.81929 | -63.01639 | 13221 ft | 349 kts | 288° |
| 2026-04-30 22:15 | 17.82788 | -63.03992 | 12474 ft | 342 kts | 289° |
| 2026-04-30 22:15 | 17.83632 | -63.06305 | 11720 ft | 337 kts | 289° |
| 2026-04-30 22:16 | 17.84466 | -63.08590 | 10903 ft | 333 kts | 289° |
| 2026-04-30 22:16 | 17.85291 | -63.10851 | 10077 ft | 331 kts | 289° |
| 2026-04-30 22:17 | 17.87729 | -63.17550 | 7566 ft | 324 kts | 290° |
| 2026-04-30 22:17 | 17.88533 | -63.19759 | 6662 ft | 324 kts | 290° |
| 2026-04-30 22:17 | 17.90136 | -63.24175 | 4854 ft | 323 kts | 290° |
| 2026-04-30 22:18 | 17.90945 | -63.26384 | 3944 ft | 322 kts | 291° |
| 2026-04-30 22:18 | 17.93446 | -63.30058 | 2837 ft | 300 kts | 326° |
| 2026-04-30 22:19 | 17.97173 | -63.30539 | 2624 ft | 256 kts | 17° |
| 2026-04-30 22:19 | 17.98804 | -63.30042 | 2628 ft | 240 kts | 13° |
| 2026-04-30 22:19 | 18.01517 | -63.28662 | 2550 ft | 204 kts | 54° |
| 2026-04-30 22:20 | 18.01910 | -63.27308 | 2594 ft | 190 kts | 81° |
| 2026-04-30 22:20 | 18.02227 | -63.24691 | 2630 ft | 171 kts | 84° |
| 2026-04-30 22:20 | 18.02340 | -63.23460 | 2466 ft | 170 kts | 85° |
| 2026-04-30 22:21 | 18.02464 | -63.22218 | 2175 ft | 169 kts | 83° |
| 2026-04-30 22:21 | 18.02633 | -63.21019 | 1866 ft | 162 kts | 80° |
| 2026-04-30 22:21 | 18.02834 | -63.19885 | 1605 ft | 152 kts | 82° |
| 2026-04-30 22:21 | 18.02978 | -63.18797 | 1400 ft | 151 kts | 84° |
| 2026-04-30 22:22 | 18.03122 | -63.17709 | 1206 ft | 149 kts | 84° |
| 2026-04-30 22:22 | 18.03274 | -63.16635 | 1004 ft | 148 kts | 83° |
| 2026-04-30 22:22 | 18.03428 | -63.15576 | 803 ft | 149 kts | 82° |
| 2026-04-30 22:22 | 18.03521 | -63.14851 | 652 ft | 149 kts | 81° |
| 2026-04-30 22:23 | 18.03692 | -63.13762 | 391 ft | 154 kts | 80° |
| 2026-04-30 22:23 | 18.03893 | -63.12275 | 101 ft | 155 kts | 82° |
| 2026-04-30 22:23 | 18.04042 | -63.11208 | 14 ft | 119 kts | 80° |
| 2026-04-30 22:23 | 18.04103 | -63.10817 | 13 ft | 52 kts | 82° |
| 2026-04-30 22:24 | 18.04150 | -63.10455 | 13 ft | 51 kts | 82° |
| 2026-04-30 22:24 | 18.04197 | -63.10139 | 13 ft | 36 kts | 81° |
| 2026-04-30 22:24 | 18.04189 | -63.09987 | 13 ft | 8 kts | 87° |
| 2026-04-30 22:24 | 18.04215 | -63.09955 | 13 ft | 4 kts | 351° |
| 2026-04-30 22:25 | 18.04228 | -63.09975 | 13 ft | 3 kts | 270° |
| 2026-04-30 22:25 | 18.04217 | -63.10017 | 13 ft | 11 kts | 257° |
| 2026-04-30 22:25 | 18.04198 | -63.10143 | 13 ft | 22 kts | 261° |
| 2026-04-30 22:25 | 18.04172 | -63.10318 | 13 ft | 26 kts | 261° |
| 2026-04-30 22:26 | 18.04119 | -63.10688 | 13 ft | 27 kts | 261° |
| 2026-04-30 22:26 | 18.04091 | -63.10882 | 13 ft | 27 kts | 261° |
| 2026-04-30 22:26 | 18.04103 | -63.10986 | 13 ft | 13 kts | 316° |
| 2026-04-30 22:27 | 18.04154 | -63.11025 | 13 ft | 6 kts | 292° |
| 2026-04-30 22:27 | 18.04158 | -63.11078 | 13 ft | 9 kts | 264° |
| 2026-04-30 22:27 | 18.04132 | -63.11269 | 13 ft | 9 kts | 263° |
| 2026-04-30 22:28 | 18.04149 | -63.11300 | 13 ft | 0 kts | 329° |
| 2026-04-30 22:28 | 18.04167 | -63.11309 | 13 ft | 7 kts | 345° |
| 2026-04-30 22:29 | 18.04260 | -63.11365 | 13 ft | 1 kts | 10° |
| 2026-04-30 22:29 | 18.04301 | -63.11361 | 13 ft | 9 kts | 353° |
| 2026-04-30 22:30 | 18.04329 | -63.11366 | 13 ft | 0 kts | 351° |